Flight Track Log - Related Links

Times and Time Zones

All times are in EDT time to prevent confusion due to time zone crossing. See the SGB2520 flight status page for this flight to view local times or setup timezone preferences in your user account.

Time Position Orientation Groundspeed Altitude Reporting Facility
EDT Latitude Longitude Course Direction KTS MPH feet Rate Location/Type
Sat 09:17:27 PM 42.7653 -73.8061 357° North 168 193 1,300  Level Boston Center
Sat 09:18:15 PM 42.8153 -73.8100 275° West 219 252 3,900 3,500 Climbing Boston Center
Sat 09:19:15 PM 42.8206 -73.8894 257° West 264 304 7,600 2,900 Climbing Boston Center
Sat 09:20:15 PM 42.8047 -73.9825 254° West 287 330 9,700 1,950 Climbing Boston Center
Sat 09:21:15 PM 42.7847 -74.0753 227° Southwest 272 313 11,500 2,450 Climbing Boston Center
Sat 09:22:15 PM 42.7314 -74.1531 227° Southwest 288 331 14,600 2,850 Climbing Boston Center
Sat 09:23:15 PM 42.6611 -74.2556 227° Southwest 330 380 17,200 2,200 Climbing Boston Center
Sat 09:24:15 PM 42.5947 -74.3522 227° Southwest 372 428 19,000 900 Climbing Boston Center
Sat 09:25:15 PM 42.5136 -74.4708 224° Southwest 388 447 19,000  Level Boston Center
Sat 09:26:15 PM 42.4431 -74.5642 215° Southwest 397 457 19,000  Level Boston Center
Sat 09:27:15 PM 42.3433 -74.6592 217° Southwest 404 465 19,000  Level Boston Center
Sat 09:28:15 PM 42.2517 -74.7514 214° Southwest 413 475 19,000  Level Boston Center
Sat 09:29:52 PM 42.1189 -74.8725 218° Southwest 399 459 19,000  Level New York Center
Sat 09:30:52 PM 42.0325 -74.9647 215° Southwest 394 453 19,000  Level New York Center
Sat 09:31:52 PM 41.9464 -75.0458 216° Southwest 388 447 19,000  Level New York Center
Sat 09:32:51 PM 41.8514 -75.1369 215° Southwest 388 447 19,000  Level New York Center
Sat 09:33:54 PM 41.7631 -75.2203 216° Southwest 393 452 19,000  Level New York Center
Sat 09:34:52 PM 41.6744 -75.3058 216° Southwest 393 452 19,000 -356 Level New York Center
Sat 09:35:52 PM 41.5986 -75.3783 217° Southwest 390 449 18,300 -756 Descending New York Center
Sat 09:36:51 PM 41.5206 -75.4561 215° Southwest 361 415 17,500 -900 Descending New York Center
Sat 09:37:52 PM 41.4342 -75.5358 216° Southwest 351 404 16,500 -750 Descending New York Center
Sat 09:38:51 PM 41.3561 -75.6106 215° Southwest 351 404 16,000 -250 Descending New York Center
Sat 09:39:52 PM 41.2825 -75.6797 184° South 351 404 16,000  Level New York Center
Sat 09:40:54 PM 41.1717 -75.6911 178° South 343 395 16,000  Level New York Center
Sat 09:41:52 PM 41.0739 -75.6867 177° South 370 426 16,000  Level New York Center
Sat 09:42:52 PM 40.9639 -75.6789 176° South 392 451 16,000  Level New York Center
Sat 09:43:51 PM 40.8581 -75.6683 176° South 392 451 16,000  Level New York Center
Sat 09:44:53 PM 40.7397 -75.6572 176° South 392 451 16,000  Level New York Center
Sat 09:45:51 PM 40.6317 -75.6467 176° South 392 451 16,000  Level New York Center
Sat 09:46:52 PM 40.5300 -75.6369 176° South 403 464 16,000  Level New York Center
Sat 09:47:53 PM 40.4158 -75.6261 176° South 411 473 16,000  Level New York Center
Sat 09:48:54 PM 40.2872 -75.6142 176° South 423 487 16,000 -209 Level New York Center
Sat 09:53:09 PM 39.7803 -75.5672 176° South 430 495 14,900 -189 Descending Washington Center
Sat 09:54:11 PM 39.6594 -75.5564 176° South 435 501 15,000 50 Climbing Washington Center
Sat 09:55:09 PM 39.5406 -75.5458 175° South 435 501 15,000 -102 Level Washington Center
Sat 09:56:09 PM 39.4281 -75.5325 135° Southeast 443 510 14,800 -446 Descending Washington Center
Sat 09:57:10 PM 39.3406 -75.4197 116° Southeast 420 483 14,100 -927 Descending Washington Center
Sat 09:58:12 PM 39.2839 -75.2725 118° Southeast 420 483 12,900 -1,279 Descending Washington Center
Sat 09:59:12 PM 39.2250 -75.1281 116° Southeast 432 497 11,500 -1,271 Descending Washington Center
Sat 10:00:10 PM 39.1744 -74.9944 118° Southeast 432 497 10,400 -1,300 Descending Washington Center
Sat 10:01:12 PM 39.1278 -74.8825 87° East 393 452 8,900 -1,412 Descending Washington Center
Sat 10:02:09 PM 39.1314 -74.7781 29° Northeast 331 381 7,600 -1,550 Descending Washington Center
Sat 10:03:12 PM 39.2061 -74.7236 48° Northeast 247 284 5,800 -1,415 Descending Washington Center
Sat 10:04:12 PM 39.2617 -74.6428 47° Northeast 271 312 4,700 -706 Descending Washington Center
Sat 10:05:11 PM 39.3050 -74.5831 50° Northeast 257 296 4,400 -769 Descending Washington Center
Sat 10:06:09 PM 39.3419 -74.5261 43° Northeast 225 259 3,200 -1,059 Descending Washington Center
Sat 10:07:10 PM 39.3750 -74.4856 43° Northeast 190 219 2,300 -885 Descending Washington Center

Login

Don't have an account? Register now (free) for customized features, flight alerts, and more!